Time;durP1;ratioP1;P1;durP2;ratioP2;P2;SDS_P1;SDS_P2;PMS_P1;PMS_P2;Temp;Humidity;BMP_temperature;BMP_pressure;BME280_temperature;BME280_humidity;BME280_pressure;Samples;Min_cycle;Max_cycle;Signal;HPM_P1;HPM_P2
2023/04/14 00:01:29;;;;;;;8.52;4.72;;;;;;;13.48;69.12;100762.78;5089291;28;20028;-83
2023/04/14 00:03:55;;;;;;;6.68;4.10;;;;;;;13.46;69.27;100761.81;5090856;28;20031;-84
2023/04/14 00:06:20;;;;;;;6.20;3.72;;;;;;;13.47;69.25;100762.75;5090459;28;20029;-84
2023/04/14 00:08:46;;;;;;;8.85;3.67;;;;;;;13.28;69.16;100734.81;5089323;28;20040;-83
2023/04/14 00:11:11;;;;;;;6.68;4.78;;;;;;;13.23;69.31;100724.13;5090551;28;20028;-83
2023/04/14 00:13:37;;;;;;;7.10;3.85;;;;;;;13.34;69.09;100743.84;5090778;28;20028;-83
2023/04/14 00:16:03;;;;;;;6.45;4.03;;;;;;;13.46;69.17;100768.78;5090721;28;20036;-83
2023/04/14 00:18:28;;;;;;;6.68;4.00;;;;;;;13.47;69.30;100768.88;5088378;28;20089;-83
2023/04/14 00:20:54;;;;;;;6.75;3.60;;;;;;;13.26;69.18;100731.22;5090306;28;20032;-83
2023/04/14 00:23:20;;;;;;;6.88;3.42;;;;;;;13.32;69.48;100737.66;5090546;28;20032;-84
2023/04/14 00:25:46;;;;;;;6.85;3.75;;;;;;;13.21;69.27;100729.28;5090527;28;20032;-83
2023/04/14 00:28:11;;;;;;;6.95;4.25;;;;;;;13.41;69.38;100760.75;5071882;28;20887;-83
2023/04/14 00:30:37;;;;;;;5.85;4.03;;;;;;;13.08;69.28;100700.78;5092124;28;20119;-83
2023/04/14 00:33:03;;;;;;;8.63;4.18;;;;;;;13.39;69.08;100750.19;5091690;28;20481;-84
2023/04/14 00:35:28;;;;;;;6.25;4.28;;;;;;;13.30;69.37;100743.66;5091062;28;20035;-83
2023/04/14 00:37:55;;;;;;;8.95;4.15;;;;;;;13.22;69.38;100731.06;5089335;28;20482;-84
2023/04/14 00:40:21;;;;;;;6.78;4.55;;;;;;;13.44;69.18;100771.38;5089426;28;20056;-84
2023/04/14 00:42:47;;;;;;;7.35;4.18;;;;;;;13.26;69.14;100734.72;5089318;28;20507;-84
2023/04/14 00:45:13;;;;;;;4.78;4.07;;;;;;;13.42;69.17;100763.44;5090570;28;20421;-83
2023/04/14 00:47:41;;;;;;;6.05;4.03;;;;;;;13.43;69.44;100764.31;5088342;28;20042;-83
2023/04/14 00:50:08;;;;;;;5.55;3.95;;;;;;;13.42;69.49;100762.53;5072675;28;20030;-84
2023/04/14 00:52:35;;;;;;;6.25;4.03;;;;;;;13.31;69.30;100733.22;5090166;28;20028;-84
2023/04/14 00:55:03;;;;;;;7.05;4.00;;;;;;;13.41;69.47;100747.63;5072327;28;20032;-83
2023/04/14 00:57:29;;;;;;;6.18;4.28;;;;;;;13.42;69.33;100752.94;5090852;28;20086;-82
2023/04/14 00:59:57;;;;;;;6.68;4.28;;;;;;;13.38;69.38;100739.63;5076036;28;20036;-83
2023/04/14 01:02:22;;;;;;;6.90;4.05;;;;;;;13.41;69.46;100745.88;5073943;28;20555;-83
2023/04/14 01:04:48;;;;;;;6.40;3.72;;;;;;;12.98;69.37;100681.13;5092557;28;20031;-82
2023/04/14 01:07:14;;;;;;;6.78;4.20;;;;;;;13.20;69.28;100711.75;5091973;28;20036;-83
2023/04/14 01:09:39;;;;;;;6.75;3.80;;;;;;;13.42;69.16;100749.44;5075894;28;20496;-83
2023/04/14 01:12:25;;;;;;;5.63;3.63;;;;;;;13.40;69.27;100746.75;5093955;28;20063;-83
2023/04/14 01:15:02;;;;;;;5.72;4.13;;;;;;;13.39;69.35;100750.19;5092581;28;20020;-83
2023/04/14 01:17:36;;;;;;;6.20;4.18;;;;;;;13.40;69.54;100751.09;5091555;28;20040;-83
2023/04/14 01:20:08;;;;;;;6.63;3.97;;;;;;;13.40;69.34;100751.09;5080998;28;20085;-83
2023/04/14 01:22:38;;;;;;;8.95;4.20;;;;;;;13.34;69.55;100741.22;5093215;28;20042;-83
2023/04/14 01:25:28;;;;;;;6.20;4.28;;;;;;;13.38;69.45;100745.78;5092909;28;20081;-84
2023/04/14 01:28:27;;;;;;;7.88;4.05;;;;;;;13.39;69.44;100750.19;5092489;28;20051;-84
2023/04/14 01:31:16;;;;;;;8.00;4.13;;;;;;;13.36;69.39;100744.81;5093201;28;20024;-82
2023/04/14 01:33:43;;;;;;;5.28;3.67;;;;;;;13.38;69.17;100742.25;5093632;28;20024;-83
2023/04/14 01:36:12;;;;;;;6.13;4.15;;;;;;;13.35;69.25;100740.38;5075058;28;20027;-83
2023/04/14 01:38:38;;;;;;;9.05;4.28;;;;;;;13.36;69.59;100746.56;5074713;28;20036;-84
2023/04/14 01:41:07;;;;;;;8.20;4.10;;;;;;;13.36;69.46;100744.81;5073582;28;20032;-82
2023/04/14 01:43:36;;;;;;;6.45;4.38;;;;;;;13.30;69.38;100731.44;5091753;28;20490;-84
2023/04/14 01:46:06;;;;;;;8.82;4.20;;;;;;;13.38;69.38;100734.41;5063583;28;20043;-82
2023/04/14 01:48:32;;;;;;;5.38;4.30;;;;;;;13.37;69.33;100729.97;5052470;28;20119;-84
2023/04/14 01:50:58;;;;;;;6.55;4.15;;;;;;;13.35;69.40;100732.50;5069859;28;20147;-84
2023/04/14 01:53:25;;;;;;;6.88;3.90;;;;;;;13.35;69.49;100727.28;5054647;28;20032;-84
2023/04/14 01:55:52;;;;;;;5.22;4.05;;;;;;;13.30;69.37;100727.94;5069100;28;20099;-84
2023/04/14 01:58:18;;;;;;;5.72;3.97;;;;;;;13.26;69.44;100719.00;5061653;28;20143;-84
2023/04/14 02:00:43;;;;;;;;;;;;;;;13.36;69.46;100730.81;5072611;28;20070;-84
2023/04/14 02:03:09;;;;;;;5.72;3.90;;;;;;;13.18;69.40;100713.41;5071452;28;19935;-85
2023/04/14 02:05:37;;;;;;;5.13;3.90;;;;;;;13.24;69.66;100721.53;5066026;28;20454;-84
2023/04/14 02:08:05;;;;;;;6.38;4.00;;;;;;;13.31;69.43;100727.09;5070790;28;20074;-84
2023/04/14 02:10:32;;;;;;;7.40;3.90;;;;;;;13.32;69.37;100728.88;5072241;28;20050;-85
2023/04/14 02:12:59;;;;;;;7.90;4.53;;;;;;;13.27;69.46;100718.19;5069904;28;20474;-84
2023/04/14 02:15:27;;;;;;;5.05;3.95;;;;;;;13.07;69.32;100691.09;5071476;28;20044;-85
2023/04/14 02:17:54;;;;;;;6.65;4.47;;;;;;;13.12;69.27;100696.53;5071252;28;20082;-84
2023/04/14 02:20:21;;;;;;;6.65;4.72;;;;;;;13.32;69.39;100723.66;5071208;28;20053;-83
2023/04/14 02:22:46;;;;;;;6.32;4.00;;;;;;;13.33;69.38;100728.94;5069489;28;20505;-84
2023/04/14 02:25:12;;;;;;;7.97;4.13;;;;;;;13.04;69.30;100683.13;5070570;28;20040;-84
2023/04/14 02:27:59;;;;;;;6.45;3.88;;;;;;;13.29;69.33;100734.88;5071898;28;20111;-84
2023/04/14 02:30:34;;;;;;;8.20;4.30;;;;;;;13.31;69.27;100748.06;5053854;28;20028;-84
2023/04/14 02:33:03;;;;;;;5.90;4.22;;;;;;;13.14;69.36;100721.09;5070001;28;20028;-84
2023/04/14 02:35:31;;;;;;;5.35;4.18;;;;;;;13.20;69.40;100730.09;5070655;28;20039;-83
2023/04/14 02:38:06;;;;;;;6.95;3.67;;;;;;;13.28;69.58;100740.94;5066458;28;20016;-84
2023/04/14 02:40:35;;;;;;;4.88;4.00;;;;;;;13.11;69.62;100711.38;5053642;28;20040;-84
2023/04/14 02:43:12;;;;;;;6.47;3.92;;;;;;;13.23;69.46;100734.59;5053175;28;20035;-84
2023/04/14 02:45:39;;;;;;;6.03;4.43;;;;;;;13.08;69.35;100705.09;5083859;28;20506;-83
2023/04/14 02:48:10;;;;;;;4.70;3.75;;;;;;;13.27;69.21;100741.78;5071412;28;20039;-84
2023/04/14 02:50:36;;;;;;;6.25;4.28;;;;;;;13.22;69.49;100735.44;5070143;28;20107;-84
2023/04/14 02:53:02;;;;;;;5.03;3.53;;;;;;;13.22;69.41;100735.44;5069110;28;20119;-84
2023/04/14 02:55:28;;;;;;;5.60;4.18;;;;;;;13.25;69.14;100738.19;5057487;28;20064;-84
2023/04/14 02:57:54;;;;;;;5.88;3.90;;;;;;;13.10;69.37;100711.28;5070895;28;20071;-84
2023/04/14 03:00:20;;;;;;;4.78;3.92;;;;;;;13.23;69.23;100735.50;5071528;28;20040;-84
2023/04/14 03:02:47;;;;;;;7.55;3.85;;;;;;;13.26;69.42;100739.97;5069016;28;20103;-84
2023/04/14 03:05:13;;;;;;;5.55;4.20;;;;;;;13.23;69.49;100740.75;5086530;28;20033;-84
2023/04/14 03:07:42;;;;;;;4.50;3.67;;;;;;;13.24;69.37;100739.91;5070131;28;20043;-83
2023/04/14 03:10:10;;;;;;;7.97;3.97;;;;;;;13.23;69.32;100750.34;5069966;28;20069;-83
2023/04/14 03:12:36;;;;;;;6.05;3.80;;;;;;;13.13;69.22;100719.31;5068900;28;20025;-84
2023/04/14 03:15:02;;;;;;;4.93;3.70;;;;;;;13.23;69.50;100746.00;5071198;28;20481;-84
2023/04/14 03:17:28;;;;;;;6.47;4.00;;;;;;;13.24;69.40;100742.53;5059418;28;20037;-84
2023/04/14 03:19:54;;;;;;;6.53;3.78;;;;;;;13.18;69.52;100739.63;5038756;28;20028;-84
2023/04/14 03:22:21;;;;;;;4.80;3.75;;;;;;;13.14;69.36;100728.94;5079484;28;20498;-84
2023/04/14 03:24:46;;;;;;;5.63;4.05;;;;;;;13.18;69.36;100746.59;5070866;28;20073;-84
2023/04/14 03:27:31;;;;;;;6.78;3.28;;;;;;;13.20;69.19;100743.22;5070773;28;20459;-84
2023/04/14 03:30:00;;;;;;;5.10;3.78;;;;;;;13.10;69.14;100733.19;5068523;28;20036;-84
2023/04/14 03:32:33;;;;;;;5.45;3.70;;;;;;;12.91;69.27;100692.19;5071020;28;20401;-84
2023/04/14 03:35:00;;;;;;;6.28;4.03;;;;;;;13.04;69.47;100727.69;5069757;28;20020;-84
2023/04/14 03:37:26;;;;;;;5.55;3.90;;;;;;;13.18;69.43;100746.59;5068316;28;20451;-84
2023/04/14 03:39:53;;;;;;;7.07;3.58;;;;;;;13.09;69.42;100736.63;5070767;28;20035;-84
2023/04/14 03:42:21;;;;;;;5.68;3.70;;;;;;;13.19;69.53;100745.78;5069847;28;20020;-84
2023/04/14 03:44:52;;;;;;;5.10;3.95;;;;;;;13.15;69.46;100739.50;5061082;28;20064;-84
2023/04/14 03:47:18;;;;;;;5.53;3.90;;;;;;;13.16;69.33;100741.28;5080606;28;20410;-84
2023/04/14 03:49:47;;;;;;;5.55;3.95;;;;;;;13.00;69.50;100713.53;5069590;28;20028;-83
2023/04/14 03:52:14;;;;;;;6.05;4.28;;;;;;;13.16;69.39;100756.13;5068851;28;20029;-84
2023/04/14 03:54:42;;;;;;;5.47;3.72;;;;;;;13.15;69.34;100743.88;5070493;28;20033;-84
2023/04/14 03:57:10;;;;;;;6.95;3.67;;;;;;;13.12;69.36;100755.13;5067746;28;20031;-83
2023/04/14 03:59:37;;;;;;;5.05;4.13;;;;;;;12.97;69.26;100723.88;5060545;28;20024;-83
2023/04/14 04:02:04;;;;;;;8.07;3.95;;;;;;;13.08;69.08;100747.03;5085275;28;20016;-84
2023/04/14 04:04:30;;;;;;;6.22;4.15;;;;;;;12.91;69.62;100713.16;5067947;28;20052;-84
2023/04/14 04:06:55;;;;;;;;;;;;;;;13.20;69.21;100764.19;5069187;28;20027;-83
2023/04/14 04:09:23;;;;;;;5.28;3.85;;;;;;;13.16;69.63;100761.38;5061167;28;19920;-83
2023/04/14 04:11:51;;;;;;;5.60;3.78;;;;;;;13.16;69.38;100764.00;5069250;28;20100;-83
2023/04/14 04:14:18;;;;;;;5.15;3.88;;;;;;;13.02;69.25;100742.44;5068066;28;20078;-83
2023/04/14 04:16:48;;;;;;;4.82;3.70;;;;;;;13.14;69.54;100768.28;5069240;28;20105;-83
2023/04/14 04:19:14;;;;;;;5.13;3.85;;;;;;;13.04;69.43;100752.16;5069201;28;20078;-82
2023/04/14 04:21:41;;;;;;;4.50;3.60;;;;;;;13.13;69.65;100767.41;5069322;28;20020;-83
2023/04/14 04:24:07;;;;;;;6.45;3.72;;;;;;;13.01;69.35;100744.16;5067774;28;20028;-82
2023/04/14 04:26:35;;;;;;;7.70;3.63;;;;;;;13.12;69.66;100764.69;5069223;28;20040;-82
2023/04/14 04:29:02;;;;;;;5.55;4.40;;;;;;;13.13;69.38;100770.00;5070278;28;20123;-83
2023/04/14 04:31:28;;;;;;;7.70;4.00;;;;;;;12.93;69.50;100739.41;5069703;28;20474;-82
2023/04/14 04:33:55;;;;;;;6.03;3.75;;;;;;;13.14;69.60;100771.78;5071797;28;20035;-82
2023/04/14 04:36:21;;;;;;;6.28;3.70;;;;;;;13.14;69.26;100770.91;5073313;28;20075;-82
2023/04/14 04:38:48;;;;;;;4.80;3.97;;;;;;;13.07;69.43;100763.63;5074151;28;20527;-84
2023/04/14 04:41:40;;;;;;;6.55;4.20;;;;;;;13.14;69.40;100773.53;5073995;28;20078;-84
2023/04/14 04:44:05;;;;;;;6.93;3.95;;;;;;;12.97;69.52;100739.59;5070778;28;20187;-84
2023/04/14 04:46:49;;;;;;;6.43;4.63;;;;;;;13.11;69.21;100770.78;5072648;28;20103;-84
2023/04/14 04:49:15;;;;;;;5.60;3.97;;;;;;;13.15;69.60;100772.72;5055806;28;20489;-85
2023/04/14 04:51:42;;;;;;;8.80;4.25;;;;;;;13.13;69.61;100777.00;5073372;28;20021;-84
2023/04/14 04:54:07;;;;;;;5.53;4.05;;;;;;;13.05;69.36;100758.28;5055215;28;20115;-82
2023/04/14 04:56:33;;;;;;;5.05;3.80;;;;;;;13.11;69.38;100773.41;5056064;28;20100;-82
2023/04/14 04:58:58;;;;;;;4.63;4.15;;;;;;;13.11;69.43;100779.53;5073941;28;20020;-82
2023/04/14 05:01:24;;;;;;;8.50;4.40;;;;;;;13.12;69.51;100775.19;5056073;28;20021;-82
2023/04/14 05:03:50;;;;;;;6.10;4.13;;;;;;;12.92;69.62;100735.00;5072418;28;20041;-83
2023/04/14 05:06:15;;;;;;;5.15;4.15;;;;;;;13.12;69.57;100768.25;5073742;28;20058;-82
2023/04/14 05:08:41;;;;;;;5.82;4.00;;;;;;;13.12;69.53;100769.94;5073349;28;20077;-83
2023/04/14 05:11:07;;;;;;;5.45;3.95;;;;;;;13.03;69.67;100757.31;5071430;28;20040;-81
2023/04/14 05:13:33;;;;;;;7.35;3.80;;;;;;;13.09;69.92;100761.97;5055077;28;20113;-83
2023/04/14 05:16:05;;;;;;;7.13;4.45;;;;;;;12.99;69.62;100747.53;5073270;28;20655;-83
2023/04/14 05:18:31;;;;;;;7.03;4.55;;;;;;;13.08;69.98;100765.38;5053247;28;20032;-83
2023/04/14 05:21:07;;;;;;;5.43;4.20;;;;;;;13.04;69.79;100756.50;5055189;28;20020;-82
2023/04/14 05:23:35;;;;;;;5.47;3.77;;;;;;;12.97;69.91;100746.56;5069682;28;20697;-81
2023/04/14 05:26:01;;;;;;;5.45;3.95;;;;;;;13.08;70.40;100768.94;5068844;28;20024;-82
2023/04/14 05:28:26;;;;;;;;;;;;;;;13.13;69.71;100766.50;5055861;28;20021;-82
2023/04/14 05:30:52;;;;;;;7.57;4.15;;;;;;;13.03;69.74;100750.34;5072284;28;19921;-81
2023/04/14 05:33:18;;;;;;;7.90;3.83;;;;;;;13.02;70.15;100758.19;5068619;28;20433;-84
2023/04/14 05:35:44;;;;;;;6.82;4.20;;;;;;;12.82;69.85;100715.34;5051920;28;20028;-83
2023/04/14 05:38:10;;;;;;;7.15;4.25;;;;;;;13.06;69.72;100753.94;5071055;28;20066;-83
2023/04/14 05:40:36;;;;;;;4.60;3.95;;;;;;;13.10;69.90;100756.78;5074329;28;20040;-83
2023/04/14 05:43:01;;;;;;;7.47;3.92;;;;;;;13.12;70.00;100754.22;5046341;28;20050;-83
2023/04/14 05:45:27;;;;;;;9.70;4.15;;;;;;;13.13;69.69;100759.53;5067185;28;20045;-84
2023/04/14 05:47:52;;;;;;;7.10;4.20;;;;;;;13.13;69.80;100758.63;5090869;28;20036;-83
2023/04/14 05:50:21;;;;;;;5.65;4.43;;;;;;;12.97;69.83;100729.13;5088735;28;20071;-83
2023/04/14 05:52:47;;;;;;;6.75;4.47;;;;;;;13.02;69.95;100731.97;5088511;28;20119;-85
2023/04/14 05:55:13;;;;;;;6.10;4.50;;;;;;;12.91;70.00;100718.38;5088559;28;20111;-87
2023/04/14 05:57:38;;;;;;;5.53;4.10;;;;;;;12.68;69.78;100674.53;5056543;28;20561;-85
2023/04/14 06:00:06;;;;;;;4.80;3.95;;;;;;;13.07;69.84;100732.16;5088546;28;20035;-83
2023/04/14 06:02:31;;;;;;;6.03;3.92;;;;;;;13.00;69.73;100725.75;5095343;28;20036;-85
2023/04/14 06:04:58;;;;;;;6.90;4.45;;;;;;;12.99;70.03;100723.94;5082069;28;20098;-85
2023/04/14 06:07:24;;;;;;;5.57;3.95;;;;;;;13.14;70.03;100747.31;5076231;28;20074;-85
2023/04/14 06:09:50;;;;;;;6.30;3.63;;;;;;;13.13;69.86;100740.28;5070949;28;20034;-84
2023/04/14 06:12:16;;;;;;;8.98;4.00;;;;;;;12.87;69.95;100695.50;5071457;28;20111;-85
2023/04/14 06:14:47;;;;;;;5.13;3.90;;;;;;;12.53;69.85;100628.53;5061193;28;20532;-85
2023/04/14 06:17:12;;;;;;;6.43;4.40;;;;;;;13.07;69.90;100722.56;5083929;28;20090;-84
2023/04/14 06:19:38;;;;;;;5.25;4.15;;;;;;;12.75;70.02;100674.88;5070548;28;20460;-85
2023/04/14 06:22:07;;;;;;;5.05;3.85;;;;;;;12.97;70.13;100717.75;5065740;28;20028;-85
2023/04/14 06:24:35;;;;;;;6.18;4.25;;;;;;;12.96;70.22;100718.59;5078178;28;20109;-84
2023/04/14 06:27:05;;;;;;;4.43;3.50;;;;;;;12.99;70.28;100719.59;5088503;28;20028;-85
2023/04/14 06:29:31;;;;;;;5.78;4.03;;;;;;;12.79;70.34;100682.03;5067390;28;20119;-85
2023/04/14 06:31:57;;;;;;;5.57;4.32;;;;;;;12.79;70.62;100689.91;5072861;28;20107;-85
2023/04/14 06:34:23;;;;;;;8.48;4.53;;;;;;;13.01;70.68;100744.16;5062743;28;20067;-84
2023/04/14 06:36:49;;;;;;;5.68;4.10;;;;;;;12.92;70.74;100720.16;5095984;28;20107;-85
2023/04/14 06:39:15;;;;;;;5.57;4.13;;;;;;;12.76;70.73;100681.94;5067622;28;20115;-85
2023/04/14 06:41:41;;;;;;;5.78;4.18;;;;;;;12.88;70.68;100701.63;5083814;28;20106;-86
2023/04/14 06:44:06;;;;;;;5.82;4.40;;;;;;;12.66;71.18;100673.56;5070844;28;20376;-84
2023/04/14 06:46:34;;;;;;;5.28;4.13;;;;;;;12.89;70.97;100706.94;5090392;28;20032;-87
2023/04/14 06:49:01;;;;;;;7.55;4.50;;;;;;;13.04;70.89;100730.31;5083101;28;20032;-82
2023/04/14 06:51:26;;;;;;;7.70;4.45;;;;;;;12.98;71.27;100736.16;5089487;28;20036;-83
2023/04/14 06:53:52;;;;;;;5.53;4.20;;;;;;;12.92;70.85;100714.03;5071536;28;20090;-87
2023/04/14 06:56:18;;;;;;;7.78;4.32;;;;;;;12.81;71.14;100703.09;5079361;28;20493;-86
2023/04/14 06:58:43;;;;;;;6.20;4.53;;;;;;;13.05;70.80;100745.19;5086627;28;20066;-86
2023/04/14 07:01:09;;;;;;;6.97;4.15;;;;;;;12.84;71.26;100705.81;5090975;28;20058;-86
2023/04/14 07:03:35;;;;;;;6.72;4.45;;;;;;;12.95;70.76;100716.78;5091124;28;20054;-85
2023/04/14 07:06:05;;;;;;;7.78;4.50;;;;;;;13.01;70.94;100725.78;5089031;28;20110;-87
2023/04/14 07:08:31;;;;;;;7.00;4.40;;;;;;;12.92;71.35;100717.53;5065100;28;20043;-87
2023/04/14 07:11:02;;;;;;;5.30;4.43;;;;;;;13.04;71.33;100740.78;5068342;28;20028;-85
2023/04/14 07:13:28;;;;;;;5.78;4.40;;;;;;;13.03;71.27;100733.72;5067216;28;20412;-86
2023/04/14 07:15:54;;;;;;;6.60;4.75;;;;;;;12.88;71.27;100709.50;5084289;28;20020;-87
2023/04/14 07:18:20;;;;;;;5.40;4.05;;;;;;;12.99;71.23;100718.69;5072159;28;20032;-86
2023/04/14 07:20:47;;;;;;;7.35;4.38;;;;;;;13.04;71.02;100727.69;5083313;28;20062;-85
2023/04/14 07:23:13;;;;;;;6.82;4.30;;;;;;;12.87;71.22;100705.97;5080588;28;20062;-87
2023/04/14 07:25:38;;;;;;;6.10;4.55;;;;;;;13.03;71.66;100724.13;5089173;28;20051;-87
2023/04/14 07:28:05;;;;;;;6.60;4.32;;;;;;;12.72;71.21;100672.16;5083706;28;20044;-86
2023/04/14 07:30:31;;;;;;;7.05;4.30;;;;;;;12.79;71.23;100673.31;5092057;28;20039;-86
2023/04/14 07:32:57;;;;;;;5.57;4.38;;;;;;;12.91;71.13;100693.88;5089760;28;20032;-86
2023/04/14 07:35:25;;;;;;;7.38;4.22;;;;;;;12.96;71.34;100714.22;5079767;28;20149;-85
2023/04/14 07:37:51;;;;;;;9.73;4.85;;;;;;;13.08;71.50;100729.59;5075291;28;20129;-85
2023/04/14 07:40:17;;;;;;;5.90;4.57;;;;;;;13.07;71.56;100722.56;5095308;28;20033;-85
2023/04/14 07:42:43;;;;;;;;;;;;;;;13.12;71.78;100728.00;5071464;28;20135;-85
2023/04/14 07:45:09;;;;;;;6.55;4.55;;;;;;;13.12;71.63;100722.75;5071924;28;19917;-85
2023/04/14 07:47:36;;;;;;;7.00;4.57;;;;;;;13.10;71.44;100703.44;5087256;28;20489;-83
2023/04/14 07:50:02;;;;;;;6.15;4.57;;;;;;;13.07;71.47;100696.34;5072468;28;20123;-83
2023/04/14 07:52:30;;;;;;;6.30;4.78;;;;;;;13.15;71.66;100715.91;5089132;28;20035;-83
2023/04/14 07:54:56;;;;;;;10.40;5.32;;;;;;;13.01;71.33;100688.22;5090705;28;20516;-83
2023/04/14 07:57:21;;;;;;;7.75;5.05;;;;;;;13.17;71.83;100716.00;5079916;28;20029;-83
2023/04/14 07:59:47;;;;;;;7.13;5.05;;;;;;;13.08;71.31;100689.38;5083239;28;20035;-86
2023/04/14 08:02:12;;;;;;;6.90;5.10;;;;;;;13.12;71.48;100699.16;5078211;28;20421;-85
2023/04/14 08:04:38;;;;;;;8.95;4.55;;;;;;;13.20;71.11;100710.88;5087241;28;20071;-86
2023/04/14 08:07:04;;;;;;;10.40;4.97;;;;;;;12.83;71.24;100649.03;5069656;28;20028;-84
2023/04/14 08:09:29;;;;;;;6.13;4.90;;;;;;;13.08;71.33;100684.13;5081536;28;20051;-86
2023/04/14 08:11:56;;;;;;;8.05;5.00;;;;;;;13.11;71.41;100684.25;5096573;28;20413;-86
2023/04/14 08:14:22;;;;;;;8.13;5.00;;;;;;;13.11;71.24;100682.53;5065668;28;20093;-86
2023/04/14 08:16:49;;;;;;;7.55;5.22;;;;;;;13.25;71.56;100701.47;5086557;28;20072;-89
2023/04/14 08:19:15;;;;;;;7.90;5.35;;;;;;;13.17;71.33;100681.91;5085537;28;20040;-87
2023/04/14 08:21:40;;;;;;;11.50;6.53;;;;;;;13.10;71.69;100616.91;5075382;28;20087;-90
2023/04/14 08:24:06;;;;;;;18.35;11.10;;;;;;;13.68;73.47;100671.78;5080997;28;20031;-90
2023/04/14 08:26:32;;;;;;;18.38;11.25;;;;;;;13.64;73.44;100701.34;5087265;28;20107;-86
2023/04/14 08:28:57;;;;;;;16.20;10.55;;;;;;;13.22;73.05;100657.66;5081787;28;20036;-87
2023/04/14 08:31:23;;;;;;;16.17;10.15;;;;;;;13.51;72.18;100709.56;5086288;28;20036;-87
2023/04/14 08:33:50;;;;;;;16.05;9.82;;;;;;;13.46;70.61;100697.97;5067658;28;20417;-87
2023/04/14 08:36:15;;;;;;;16.85;9.43;;;;;;;13.24;69.29;100627.13;5070098;28;20125;-87
2023/04/14 08:38:41;;;;;;;15.02;9.70;;;;;;;13.49;67.93;100664.91;5086663;28;20036;-86
2023/04/14 08:41:08;;;;;;;16.77;9.20;;;;;;;13.40;67.18;100633.94;5085530;28;20020;-87
2023/04/14 08:43:37;;;;;;;16.83;9.13;;;;;;;13.82;66.37;100690.69;5073495;28;20024;-86
2023/04/14 08:46:03;;;;;;;15.00;8.80;;;;;;;13.88;65.70;100690.94;5083612;28;20043;-87
2023/04/14 08:48:30;;;;;;;12.40;7.90;;;;;;;13.98;65.13;100687.81;5084776;28;20039;-87
2023/04/14 08:51:11;;;;;;;12.70;7.93;;;;;;;13.84;65.10;100683.75;5085595;28;20045;-87
2023/04/14 08:53:44;;;;;;;12.18;7.97;;;;;;;14.06;64.66;100675.00;5088862;28;20131;-85
2023/04/14 08:56:12;;;;;;;11.68;7.15;;;;;;;13.76;64.75;100648.47;5085259;28;20467;-87
2023/04/14 08:58:38;;;;;;;14.57;7.63;;;;;;;13.63;64.84;100619.13;5081335;28;20032;-86
2023/04/14 09:01:04;;;;;;;;;;;;;;;14.02;64.59;100666.09;5086531;28;20024;-85
2023/04/14 09:03:30;;;;;;;12.50;6.80;;;;;;;13.97;64.02;100649.31;5075552;28;20313;-88
2023/04/14 09:05:59;;;;;;;12.65;7.07;;;;;;;14.10;63.99;100668.16;5058445;28;20565;-88
2023/04/14 09:08:26;;;;;;;13.77;8.50;;;;;;;13.98;66.19;100666.81;5071191;28;20481;-86
2023/04/14 09:10:51;;;;;;;11.95;8.10;;;;;;;13.73;68.30;100671.97;5081123;28;20039;-85
2023/04/14 09:13:19;;;;;;;10.98;8.10;;;;;;;13.43;69.16;100631.44;5070719;28;20028;-87
2023/04/14 09:15:45;;;;;;;12.48;8.23;;;;;;;13.84;69.22;100665.38;5088528;28;20512;-86
2023/04/14 09:18:11;;;;;;;11.38;7.60;;;;;;;13.64;68.86;100641.00;5088163;28;20645;-86
2023/04/14 09:20:36;;;;;;;12.65;8.05;;;;;;;13.64;67.11;100617.38;5077310;28;20424;-85
2023/04/14 09:23:03;;;;;;;12.25;7.10;;;;;;;13.60;65.87;100591.88;5091328;28;20040;-86
2023/04/14 09:25:28;;;;;;;;;;;;;;;14.08;65.28;100675.06;5076584;28;20114;-86
2023/04/14 09:27:54;;;;;;;12.20;7.13;;;;;;;14.20;64.58;100673.81;5091696;28;19998;-86
2023/04/14 09:30:20;;;;;;;9.40;6.57;;;;;;;14.15;64.41;100667.47;5083072;28;20074;-87
2023/04/14 09:32:50;;;;;;;11.48;7.07;;;;;;;14.19;63.93;100672.00;5058586;28;20082;-88
2023/04/14 09:35:16;;;;;;;10.30;6.50;;;;;;;14.32;63.51;100664.59;5055231;28;20071;-88
2023/04/14 09:37:43;;;;;;;9.73;6.75;;;;;;;14.22;63.54;100671.22;5083248;28;20806;-88
2023/04/14 09:40:10;;;;;;;10.40;6.47;;;;;;;14.10;63.74;100642.78;5058521;28;20442;-89
2023/04/14 09:42:41;;;;;;;10.02;6.65;;;;;;;13.90;62.98;100594.75;5086111;28;20050;-88
2023/04/14 09:45:08;;;;;;;8.50;5.97;;;;;;;14.40;62.78;100664.03;5085115;28;20043;-88
2023/04/14 09:47:34;;;;;;;7.40;5.63;;;;;;;14.43;62.59;100658.91;5052885;28;20063;-86
2023/04/14 09:50:03;;;;;;;8.40;5.88;;;;;;;14.37;62.78;100665.63;5074547;28;20028;-87
2023/04/14 09:52:39;;;;;;;7.32;5.50;;;;;;;14.07;62.61;100597.13;5075164;28;20124;-86
2023/04/14 09:55:15;;;;;;;9.38;5.75;;;;;;;14.19;62.88;100643.13;5072308;28;20036;-86
2023/04/14 09:57:46;;;;;;;8.55;5.78;;;;;;;14.23;63.23;100634.50;5071134;28;21489;-86
2023/04/14 10:00:14;;;;;;;6.90;5.40;;;;;;;14.17;65.44;100659.66;5075781;28;20032;-87
2023/04/14 10:02:54;;;;;;;8.15;5.57;;;;;;;13.74;67.04;100611.66;5100360;28;20171;-87
2023/04/14 10:05:46;;;;;;;9.63;5.68;;;;;;;13.97;68.13;100669.38;5089424;28;20024;-86
2023/04/14 10:08:39;;;;;;;7.53;5.53;;;;;;;14.09;67.10;100664.59;5100712;28;20058;-87
2023/04/14 10:11:28;;;;;;;6.90;5.18;;;;;;;14.12;65.43;100667.38;5072789;28;20032;-85
2023/04/14 10:14:05;;;;;;;8.18;5.15;;;;;;;13.98;64.49;100613.44;5073018;28;20028;-87
2023/04/14 10:16:32;;;;;;;6.55;5.18;;;;;;;14.34;63.97;100658.53;5073153;28;20024;-87
2023/04/14 10:18:58;;;;;;;6.43;4.72;;;;;;;14.37;63.44;100661.31;5074021;28;20131;-87
2023/04/14 10:21:26;;;;;;;8.02;4.90;;;;;;;14.36;63.25;100654.25;5073164;28;20051;-87
2023/04/14 10:23:55;;;;;;;6.50;4.63;;;;;;;14.35;62.89;100647.22;5081452;28;20032;-87
2023/04/14 10:26:21;;;;;;;6.15;4.35;;;;;;;14.23;62.77;100626.63;5070462;28;20032;-88
2023/04/14 10:28:49;;;;;;;7.10;4.90;;;;;;;13.88;62.80;100574.53;5056879;28;20028;-87
2023/04/14 10:31:41;;;;;;;5.90;4.53;;;;;;;14.42;62.59;100662.34;5074779;28;20073;-86
2023/04/14 10:34:14;;;;;;;6.93;4.28;;;;;;;14.56;62.07;100655.03;5073443;28;20081;-88
2023/04/14 10:36:42;;;;;;;5.78;4.20;;;;;;;14.52;62.17;100657.41;5069211;28;20028;-84
2023/04/14 10:39:09;;;;;;;8.23;4.10;;;;;;;14.38;62.33;100652.56;5054150;28;20035;-87
2023/04/14 10:41:49;;;;;;;6.55;4.18;;;;;;;14.11;62.10;100593.78;5058781;28;20051;-87
2023/04/14 10:44:25;;;;;;;6.30;4.32;;;;;;;14.28;61.92;100604.91;5066916;28;20040;-87
2023/04/14 10:46:55;;;;;;;5.35;4.30;;;;;;;14.21;61.78;100581.03;5054438;28;20044;-87
2023/04/14 10:49:40;;;;;;;5.88;4.40;;;;;;;14.12;63.94;100595.56;5059798;28;20456;-87
2023/04/14 10:52:15;;;;;;;5.85;3.88;;;;;;;14.32;65.82;100654.06;5058035;28;20409;-86
2023/04/14 10:55:10;;;;;;;7.00;4.28;;;;;;;14.36;66.38;100653.34;5053790;28;20445;-86
2023/04/14 10:58:14;;;;;;;5.85;4.10;;;;;;;14.29;66.65;100646.06;5051814;28;20028;-87
2023/04/14 11:00:59;;;;;;;6.20;4.35;;;;;;;14.29;64.43;100611.91;5038667;28;20033;-87
2023/04/14 11:04:22;;;;;;;6.00;4.40;;;;;;;14.49;63.74;100644.19;5088775;28;20039;-88
2023/04/14 11:07:27;;;;;;;5.00;3.63;;;;;;;14.63;62.77;100648.25;4966758;28;20041;-88
2023/04/14 11:10:53;;;;;;;7.38;4.18;;;;;;;14.17;62.40;100573.00;4959696;28;20039;-88
2023/04/14 11:14:18;;;;;;;6.00;4.05;;;;;;;14.57;62.55;100648.03;4959406;28;20042;-88
2023/04/14 11:16:44;;;;;;;6.53;3.95;;;;;;;14.42;62.24;100612.44;4966682;28;20186;-88
2023/04/14 11:19:37;;;;;;;4.90;3.85;;;;;;;14.65;62.17;100643.94;4959019;28;20671;-89
2023/04/14 11:22:45;;;;;;;7.45;3.88;;;;;;;14.75;61.59;100637.25;4926746;28;20121;-88
2023/04/14 11:26:12;;;;;;;4.65;3.70;;;;;;;14.72;61.70;100643.31;4935587;29;20027;-88
2023/04/14 11:28:52;;;;;;;5.40;3.72;;;;;;;14.61;61.40;100623.63;5010429;28;20120;-86
2023/04/14 11:32:08;;;;;;;5.35;3.65;;;;;;;14.38;61.22;100570.25;5012678;28;20056;-88
2023/04/14 11:34:52;;;;;;;4.05;3.30;;;;;;;14.42;60.79;100574.78;5012238;28;20033;-88
2023/04/14 11:37:18;;;;;;;5.50;3.45;;;;;;;14.72;61.20;100648.56;5011884;28;20182;-87
2023/04/14 11:39:45;;;;;;;4.53;3.40;;;;;;;14.28;63.69;100602.28;5012278;28;20554;-87